createdAt,value
2017-09-08T12:25:22.331Z,996.23
2017-09-08T12:26:22.999Z,996.24
2017-09-08T12:31:39.634Z,996.17
2017-09-08T12:32:39.245Z,996.26
2017-09-08T12:34:33.653Z,996.21
2017-09-08T13:37:40.278Z,995.20
2017-09-08T13:38:39.228Z,995.16
2017-09-08T13:40:32.912Z,995.20
2017-09-08T13:41:32.725Z,995.21
2017-09-08T13:43:26.384Z,995.11
2017-09-08T13:44:26.580Z,995.13
2017-09-08T13:46:18.734Z,995.04
2017-09-08T13:47:21.399Z,994.99
2017-09-08T13:49:13.034Z,994.96
2017-09-08T13:50:12.466Z,994.94
2017-09-08T13:52:06.240Z,994.98
2017-09-08T13:53:04.524Z,994.93
2017-09-08T13:55:00.577Z,994.92
2017-09-08T13:55:59.201Z,994.87
2017-09-08T13:56:59.623Z,994.91
2017-09-08T13:57:59.794Z,994.85
2017-09-08T13:59:01.883Z,994.91
2017-09-08T14:00:00.261Z,994.83
2017-09-08T14:00:58.888Z,994.83
2017-09-08T14:01:59.293Z,994.85
2017-09-08T14:02:59.322Z,994.79
2017-09-08T14:03:59.214Z,994.82
2017-09-08T14:05:00.400Z,994.72
2017-09-08T14:05:58.885Z,994.79
2017-09-08T14:06:58.873Z,994.75
2017-09-08T14:07:59.565Z,994.75
2017-09-08T14:08:59.214Z,994.67
2017-09-08T14:09:58.997Z,994.73
2017-09-08T14:10:58.899Z,994.72
2017-09-08T14:11:58.691Z,994.74
2017-09-08T14:12:58.982Z,994.75
2017-09-08T14:13:58.891Z,994.75
2017-09-08T14:14:59.002Z,994.70
2017-09-08T14:15:59.219Z,994.68
2017-09-08T14:16:59.042Z,994.69
2017-09-08T14:17:58.653Z,994.71
2017-09-08T14:18:59.671Z,994.58
2017-09-08T14:19:58.611Z,994.56
2017-09-08T14:20:58.447Z,994.58
2017-09-08T14:21:58.814Z,994.62
2017-09-08T14:23:00.489Z,994.70
2017-09-08T14:23:58.754Z,994.66
2017-09-08T14:24:58.473Z,994.65
2017-09-08T14:25:58.525Z,994.64
2017-09-08T14:26:58.415Z,994.67
2017-09-08T14:27:58.473Z,994.58
2017-09-08T14:28:58.510Z,994.57
2017-09-08T14:30:00.212Z,994.52
2017-09-08T14:30:58.480Z,994.51
2017-09-08T14:31:58.234Z,994.41
2017-09-08T14:32:59.093Z,994.50
2017-09-08T14:33:58.565Z,994.48
2017-09-08T14:34:58.662Z,994.53
2017-09-08T14:35:59.770Z,994.50
2017-09-08T14:36:58.493Z,994.37
2017-09-08T14:37:59.043Z,994.35
2017-09-08T14:38:58.322Z,994.36
2017-09-08T14:40:00.574Z,994.39
2017-09-08T14:40:57.961Z,994.37
2017-09-08T14:41:58.243Z,994.25
2017-09-08T14:42:58.255Z,994.31
2017-09-08T14:43:58.043Z,994.25
2017-09-08T14:44:57.902Z,994.32
2017-09-08T14:54:06.467Z,994.22
2017-09-08T14:56:27.290Z,994.10
2017-09-08T14:57:27.498Z,994.11
2017-09-08T15:00:11.868Z,994.15
2017-09-08T15:01:11.523Z,994.11
2017-09-08T15:03:04.773Z,994.11
2017-09-08T15:04:05.718Z,994.14
2017-09-08T15:05:58.720Z,994.13
2017-09-08T15:06:58.424Z,994.00
2017-09-08T15:08:51.488Z,994.06
2017-09-08T15:09:51.800Z,994.08
2017-09-08T15:11:45.685Z,994.09
2017-09-08T15:12:45.290Z,994.02
2017-09-08T15:14:38.355Z,994.00
2017-09-08T15:15:38.880Z,993.95
2017-09-08T15:17:32.906Z,993.95
2017-09-08T15:18:32.824Z,993.99
2017-09-08T15:20:24.590Z,993.98
2017-09-08T15:21:26.164Z,993.94
2017-09-08T15:23:19.845Z,993.89
2017-09-08T15:24:20.816Z,993.90
2017-09-08T15:26:12.762Z,993.84
2017-09-08T15:27:14.365Z,993.91
2017-09-08T15:29:04.725Z,993.95
2017-09-08T15:31:27.489Z,993.95
2017-09-08T15:32:21.100Z,993.88
2017-09-08T15:34:22.656Z,993.93
2017-09-08T15:35:12.428Z,993.89
2017-09-08T15:38:38.860Z,993.93
2017-09-08T15:39:38.570Z,993.93
2017-09-08T15:41:32.148Z,993.86
2017-09-08T15:42:31.815Z,993.96
2017-09-08T15:44:24.983Z,994.01
2017-09-08T15:45:25.171Z,993.93
2017-09-08T15:47:19.147Z,993.96
2017-09-08T15:48:19.385Z,993.99
2017-09-08T15:50:19.698Z,994.01
2017-09-08T15:51:11.816Z,993.95
2017-09-08T15:53:07.059Z,993.95
2017-09-08T15:54:05.275Z,993.95
2017-09-08T15:55:58.547Z,993.91
2017-09-08T15:56:58.665Z,993.90
2017-09-08T15:58:52.685Z,994.02
2017-09-08T15:59:51.836Z,993.95
2017-09-08T16:01:44.905Z,994.02
2017-09-08T16:02:45.230Z,993.99
2017-09-08T16:04:39.072Z,993.95
2017-09-08T16:05:38.545Z,993.95
2017-09-08T16:06:38.299Z,993.87
2017-09-08T16:07:37.983Z,993.99
2017-09-08T16:08:38.007Z,993.95
2017-09-08T16:09:38.343Z,993.93
2017-09-08T16:10:38.179Z,993.85
2017-09-08T16:11:38.094Z,993.76
2017-09-08T16:12:38.145Z,993.85
2017-09-08T16:13:38.616Z,993.75
2017-09-08T16:14:38.200Z,993.69
2017-09-08T16:15:38.093Z,993.71
2017-09-08T16:16:38.108Z,993.61
2017-09-08T16:17:37.916Z,993.71
2017-09-08T16:18:37.970Z,993.72
2017-09-08T16:19:38.390Z,993.69
2017-09-08T16:20:38.474Z,993.64
2017-09-08T16:21:37.933Z,993.69
2017-09-08T16:22:37.643Z,993.72
2017-09-08T16:23:37.640Z,993.69
2017-09-08T16:27:01.129Z,993.63
2017-09-08T16:28:01.010Z,993.58
2017-09-08T16:29:00.801Z,993.54
2017-09-08T16:30:00.634Z,993.57
2017-09-08T16:31:00.992Z,993.55
2017-09-08T16:32:02.493Z,993.59
2017-09-08T16:33:00.961Z,993.53
2017-09-08T16:34:00.864Z,993.50
2017-09-08T16:35:00.895Z,993.53
2017-09-08T16:36:00.623Z,993.41
2017-09-08T16:37:00.794Z,993.46
2017-09-08T16:38:00.630Z,993.53
2017-09-08T16:39:00.514Z,993.53
2017-09-08T16:40:01.703Z,993.56
2017-09-08T16:41:00.764Z,993.41
2017-09-08T16:42:00.468Z,993.52
2017-09-08T16:43:00.409Z,993.44
2017-09-08T16:44:00.590Z,993.45
2017-09-08T16:45:00.645Z,993.43
2017-09-08T16:46:00.622Z,993.40
2017-09-08T16:48:33.304Z,993.42
2017-09-08T16:49:32.691Z,993.40
2017-09-08T16:50:47.996Z,993.29
2017-09-08T16:51:33.231Z,993.27
2017-09-08T16:52:32.620Z,993.38
2017-09-08T16:53:32.479Z,993.28
2017-09-08T16:54:32.451Z,993.32
2017-09-08T16:55:32.311Z,993.15
2017-09-08T16:56:32.400Z,993.18
2017-09-08T16:57:32.589Z,993.48
2017-09-08T16:58:32.430Z,993.54
2017-09-08T16:59:32.210Z,993.67
2017-09-08T17:00:32.200Z,993.66
2017-09-08T17:01:32.750Z,993.61
2017-09-08T17:02:32.403Z,993.63
2017-09-08T17:03:32.219Z,993.81
2017-09-08T17:04:31.983Z,993.69
2017-09-08T17:05:32.562Z,993.73
2017-09-08T17:06:32.115Z,993.65
2017-09-08T17:07:32.234Z,993.56
2017-09-08T17:10:55.287Z,993.38
2017-09-08T17:11:55.289Z,993.43
2017-09-08T17:12:55.379Z,993.36
2017-09-08T17:13:57.948Z,993.39
2017-09-08T17:14:56.806Z,993.36
2017-09-08T17:15:55.351Z,993.43
2017-09-08T17:16:54.896Z,993.43
2017-09-08T17:17:54.949Z,993.35
2017-09-08T17:18:54.873Z,993.41
2017-09-08T17:19:54.747Z,993.28
2017-09-08T17:20:54.930Z,993.29
2017-09-08T17:21:54.665Z,993.23
2017-09-08T17:22:54.809Z,993.25
2017-09-08T17:23:55.245Z,993.14
2017-09-08T17:24:54.818Z,993.11
2017-09-08T17:25:55.055Z,993.16
2017-09-08T17:26:54.936Z,993.08
2017-09-08T17:27:54.778Z,993.07
2017-09-08T17:28:54.746Z,993.05
2017-09-08T17:29:54.703Z,993.02
2017-09-08T17:32:27.395Z,992.99
2017-09-08T17:33:27.639Z,993.01
2017-09-08T17:34:27.288Z,993.04
2017-09-08T17:35:27.037Z,993.01
2017-09-08T17:36:27.337Z,992.99
2017-09-08T17:37:26.694Z,993.00
2017-09-08T17:38:26.432Z,993.01
2017-09-08T17:39:26.827Z,992.97
2017-09-08T17:40:26.605Z,992.92
2017-09-08T17:41:26.632Z,992.91
2017-09-08T17:42:26.585Z,992.89
2017-09-08T17:43:26.334Z,992.87
2017-09-08T17:44:26.241Z,992.81
2017-09-08T17:45:26.560Z,992.91
2017-09-08T17:46:27.820Z,992.89
2017-09-08T17:47:26.225Z,992.90
2017-09-08T17:48:26.549Z,992.91
2017-09-08T17:49:26.283Z,992.84
2017-09-08T17:50:27.611Z,992.85
2017-09-08T17:51:26.068Z,992.87
2017-09-08T17:53:58.541Z,992.93
2017-09-08T17:54:58.503Z,992.89
2017-09-08T17:55:59.366Z,992.90
2017-09-08T17:56:58.267Z,992.82
2017-09-08T17:57:58.260Z,992.84
2017-09-08T17:58:58.189Z,992.86
2017-09-08T17:59:57.913Z,992.78
2017-09-08T18:00:57.975Z,992.78
2017-09-08T18:01:58.188Z,992.71
2017-09-08T18:02:57.887Z,992.69
2017-09-08T18:03:57.928Z,992.73
2017-09-08T18:04:57.806Z,992.70
2017-09-08T18:05:58.056Z,992.67
2017-09-08T18:06:57.816Z,992.68
2017-09-08T18:07:57.909Z,992.61
2017-09-08T18:08:57.785Z,992.53
2017-09-08T18:09:57.984Z,992.57
2017-09-08T18:10:57.443Z,992.47
2017-09-08T18:11:58.180Z,992.49
2017-09-08T18:12:57.779Z,992.44
2017-09-08T18:15:30.237Z,992.61
2017-09-08T18:16:29.755Z,992.62
2017-09-08T18:17:31.346Z,992.52
2017-09-08T18:18:29.473Z,992.52
2017-09-08T18:19:29.627Z,992.49
2017-09-08T18:20:29.618Z,992.55
2017-09-08T18:21:29.797Z,992.53
2017-09-08T18:22:29.491Z,992.48
2017-09-08T18:23:29.429Z,992.44
2017-09-08T18:24:29.469Z,992.45
2017-09-08T18:25:29.406Z,992.43
2017-09-08T18:26:29.358Z,992.42
2017-09-08T18:27:29.478Z,992.41
2017-09-08T18:28:29.425Z,992.48
2017-09-08T18:29:29.313Z,992.48
2017-09-08T18:30:29.198Z,992.50
2017-09-08T18:31:29.508Z,992.52
2017-09-08T18:32:30.385Z,992.52
2017-09-08T18:33:29.348Z,992.49
2017-09-08T18:34:29.163Z,992.52
2017-09-08T18:37:01.705Z,992.55
2017-09-08T18:38:01.362Z,992.55
2017-09-08T18:39:54.524Z,992.50
2017-09-08T18:40:54.908Z,992.47
2017-09-08T18:42:48.432Z,992.53
2017-09-08T18:43:55.839Z,992.53
2017-09-08T18:45:41.045Z,992.45
2017-09-08T18:46:41.864Z,992.55
2017-09-08T18:47:41.148Z,992.56
2017-09-08T18:48:41.005Z,992.61
2017-09-08T18:49:41.095Z,992.59
2017-09-08T18:50:40.983Z,992.62
2017-09-08T18:51:48.768Z,992.59
2017-09-08T18:53:35.113Z,992.55
2017-09-08T18:54:34.803Z,992.52
2017-09-08T18:56:27.886Z,992.54
2017-09-08T18:57:28.155Z,992.58
2017-09-08T18:59:21.634Z,992.51
2017-09-08T19:00:21.327Z,992.53
2017-09-08T19:02:14.488Z,992.53
2017-09-08T19:03:14.777Z,992.52
2017-09-08T19:05:08.315Z,992.51
2017-09-08T19:06:08.070Z,992.57
2017-09-08T19:08:01.479Z,992.50
2017-09-08T19:09:01.045Z,992.55
2017-09-08T19:10:54.925Z,992.50
2017-09-08T19:11:54.818Z,992.33
2017-09-08T19:13:47.616Z,992.49
2017-09-08T19:14:48.001Z,992.46
2017-09-08T19:16:41.600Z,992.29
2017-09-08T19:17:41.493Z,992.42
2017-09-08T19:18:41.488Z,992.36
2017-09-08T19:19:41.073Z,992.41
2017-09-08T19:20:41.196Z,992.42
2017-09-08T19:21:41.154Z,992.34
2017-09-08T19:22:41.071Z,992.34
2017-09-08T19:23:40.978Z,992.35
2017-09-08T19:24:40.910Z,992.36
2017-09-08T19:25:40.854Z,992.27
2017-09-08T19:26:40.948Z,992.33
2017-09-08T19:27:40.929Z,992.27
2017-09-08T19:28:40.918Z,992.26
2017-09-08T19:29:40.792Z,992.20
2017-09-08T19:30:40.903Z,992.14
2017-09-08T19:31:41.085Z,992.19
2017-09-08T19:32:40.852Z,992.16
2017-09-08T19:33:41.001Z,992.19
2017-09-08T19:34:40.752Z,992.12
2017-09-08T19:35:40.567Z,992.09
2017-09-08T19:38:13.194Z,992.15
2017-09-08T19:39:12.863Z,992.14
2017-09-08T19:40:12.404Z,992.10
2017-09-08T19:41:12.503Z,992.11
2017-09-08T19:42:12.473Z,992.09
2017-09-08T19:43:12.558Z,992.09
2017-09-08T19:44:12.599Z,992.05
2017-09-08T19:45:12.974Z,992.08
2017-09-08T19:46:12.465Z,992.00
2017-09-08T19:47:12.553Z,991.96
2017-09-08T19:48:12.466Z,991.97
2017-09-08T19:49:13.117Z,991.93
2017-09-08T19:50:12.266Z,991.92
2017-09-08T19:51:12.403Z,991.93
2017-09-08T19:52:14.298Z,991.89
2017-09-08T19:53:12.319Z,991.91
2017-09-08T19:54:12.528Z,991.92
2017-09-08T19:55:12.347Z,991.87
2017-09-08T19:56:13.070Z,991.90
2017-09-08T19:57:11.985Z,991.89
2017-09-08T20:00:35.635Z,991.77
2017-09-08T20:01:35.327Z,991.80
2017-09-08T20:02:35.381Z,991.76
2017-09-08T20:03:35.160Z,991.76
2017-09-08T20:04:35.289Z,991.71
2017-09-08T20:05:35.040Z,991.70
2017-09-08T20:06:35.188Z,991.76
2017-09-08T20:07:35.030Z,991.79
2017-09-08T20:08:34.783Z,991.77
2017-09-08T20:09:34.814Z,991.72
2017-09-08T20:10:34.894Z,991.73
2017-09-08T20:11:35.037Z,991.73
2017-09-08T20:12:34.860Z,991.74
2017-09-08T20:13:34.698Z,991.72
2017-09-08T20:14:34.771Z,991.66
2017-09-08T20:15:34.876Z,991.73
2017-09-08T20:16:34.720Z,991.78
2017-09-08T20:17:34.544Z,991.76
2017-09-08T20:18:35.007Z,991.81
2017-09-08T20:19:34.935Z,991.76
2017-09-08T20:22:58.393Z,991.75
2017-09-08T20:23:57.906Z,991.79
2017-09-08T20:24:57.882Z,991.81
2017-09-08T20:25:56.336Z,991.71
2017-09-08T20:26:57.656Z,991.66
2017-09-08T20:27:57.685Z,991.68
2017-09-08T20:28:57.868Z,991.72
2017-09-08T20:29:57.560Z,991.72
2017-09-08T20:30:57.411Z,991.59
2017-09-08T20:31:57.351Z,991.59
2017-09-08T20:32:57.577Z,991.52
2017-09-08T20:33:57.513Z,991.57
2017-09-08T20:34:57.511Z,991.54
2017-09-08T20:35:57.333Z,991.56
2017-09-08T20:36:57.451Z,991.46
2017-09-08T20:37:57.177Z,991.50
2017-09-08T20:38:57.159Z,991.40
2017-09-08T20:39:57.279Z,991.38
2017-09-08T20:40:57.132Z,991.38
2017-09-08T20:41:57.543Z,991.33
2017-09-08T20:45:20.878Z,991.40
2017-09-08T20:46:20.538Z,991.43
2017-09-08T20:47:20.478Z,991.30
2017-09-08T20:48:20.296Z,991.42
2017-09-08T20:49:20.308Z,991.36
2017-09-08T20:50:21.747Z,991.35
2017-09-08T20:51:21.823Z,991.39
2017-09-08T20:52:20.029Z,991.33
2017-09-08T20:53:20.208Z,991.38
2017-09-08T20:54:20.147Z,991.36
2017-09-08T20:55:20.269Z,991.35
2017-09-08T20:56:20.036Z,991.31
2017-09-08T20:57:19.915Z,991.36
2017-09-08T20:58:21.323Z,991.30
2017-09-08T20:59:19.850Z,991.32
2017-09-08T21:00:20.077Z,991.25
2017-09-08T21:01:20.198Z,991.21
2017-09-08T21:02:19.795Z,991.26
2017-09-08T21:03:20.049Z,991.27
2017-09-08T21:04:20.155Z,991.31
2017-09-08T21:06:52.494Z,991.31
2017-09-08T21:07:52.887Z,991.34
2017-09-08T21:08:51.909Z,991.34
2017-09-08T21:09:53.295Z,991.31
2017-09-08T21:10:51.915Z,991.24
2017-09-08T21:11:51.676Z,991.25
2017-09-08T21:12:52.013Z,991.29
2017-09-08T21:13:51.802Z,991.22
2017-09-08T21:14:51.638Z,991.27
2017-09-08T21:15:51.822Z,991.20
2017-09-08T21:16:51.567Z,991.27
2017-09-08T21:17:51.452Z,991.28
2017-09-08T21:18:51.661Z,991.20
2017-09-08T21:19:51.684Z,991.24
2017-09-08T21:20:51.529Z,991.17
2017-09-08T21:21:51.499Z,991.14
2017-09-08T21:22:52.387Z,991.07
2017-09-08T21:23:51.235Z,991.01
2017-09-08T21:24:51.171Z,991.10
2017-09-08T21:25:51.703Z,991.14
2017-09-08T21:28:23.601Z,991.11
2017-09-08T21:29:23.547Z,991.05
2017-09-08T21:31:16.988Z,991.04
2017-09-08T21:32:17.103Z,991.16
2017-09-08T21:33:16.927Z,991.14
2017-09-08T21:34:16.773Z,991.16
2017-09-08T21:35:16.567Z,991.15
2017-09-08T21:36:16.721Z,991.10
2017-09-08T21:37:16.604Z,991.15
2017-09-08T21:38:15.092Z,991.10
2017-09-08T21:39:16.386Z,991.15
2017-09-08T21:40:16.413Z,991.09
2017-09-08T21:41:16.708Z,991.10
2017-09-08T21:42:16.298Z,991.10
2017-09-08T21:43:16.461Z,991.02
2017-09-08T21:44:16.372Z,991.09
2017-09-08T21:45:16.397Z,991.06
2017-09-08T21:46:16.463Z,991.08
2017-09-08T21:47:16.404Z,991.01
2017-09-08T21:48:16.546Z,990.96
2017-09-08T21:49:16.572Z,991.03
2017-09-08T21:50:16.126Z,990.99
2017-09-08T21:52:48.756Z,991.01
2017-09-08T21:53:48.210Z,991.00
2017-09-08T21:55:41.586Z,991.05
2017-09-08T21:56:41.847Z,991.06
2017-09-08T21:58:35.392Z,991.05
2017-09-08T21:59:35.075Z,990.96
2017-09-08T22:00:35.086Z,991.01
2017-09-08T22:01:34.921Z,990.95
2017-09-08T22:02:34.637Z,991.01
2017-09-08T22:03:34.717Z,991.00
2017-09-08T22:04:34.745Z,990.97
2017-09-08T22:05:34.766Z,990.93
2017-09-08T22:06:34.568Z,990.94
2017-09-08T22:07:34.740Z,990.96
2017-09-08T22:08:34.598Z,990.94
2017-09-08T22:09:34.712Z,990.98
2017-09-08T22:10:34.374Z,990.98
2017-09-08T22:11:34.662Z,990.96
2017-09-08T22:12:34.460Z,990.95
2017-09-08T22:13:34.848Z,990.98
2017-09-08T22:14:34.549Z,990.95
2017-09-08T22:15:34.712Z,990.98
2017-09-08T22:16:34.606Z,990.90
2017-09-08T22:17:34.257Z,990.95
2017-09-08T22:20:08.486Z,990.90
2017-09-08T22:21:06.724Z,990.83
2017-09-08T22:22:06.289Z,990.92
2017-09-08T22:23:06.123Z,990.84
2017-09-08T22:24:06.423Z,990.89
2017-09-08T22:25:06.219Z,990.84
2017-09-08T22:26:06.247Z,990.83
2017-09-08T22:27:05.956Z,990.86
2017-09-08T22:28:06.123Z,990.90
2017-09-08T22:29:06.267Z,990.84
2017-09-08T22:30:06.066Z,990.82
2017-09-08T22:31:05.918Z,990.77
2017-09-08T22:32:06.117Z,990.77
2017-09-08T22:33:06.057Z,990.79
2017-09-08T22:34:06.159Z,990.76
2017-09-08T22:35:05.917Z,990.77
2017-09-08T22:36:06.208Z,990.73
2017-09-08T22:37:05.635Z,990.66
2017-09-08T22:38:05.783Z,990.77
2017-09-08T22:39:05.859Z,990.75
2017-09-08T22:41:38.384Z,990.69
2017-09-08T22:42:38.167Z,990.59
2017-09-08T22:43:38.248Z,990.61
2017-09-08T22:44:37.675Z,990.55
2017-09-08T22:45:37.694Z,990.60
2017-09-08T22:46:37.549Z,990.54
2017-09-08T22:47:37.455Z,990.56
2017-09-08T22:48:37.757Z,990.55
2017-09-08T22:49:37.438Z,990.43
2017-09-08T22:50:37.596Z,990.47
2017-09-08T22:51:37.681Z,990.51
2017-09-08T22:52:37.471Z,990.40
2017-09-08T22:53:37.562Z,990.43
2017-09-08T22:54:37.414Z,990.40
2017-09-08T22:55:37.395Z,990.47
2017-09-08T22:56:37.539Z,990.30
2017-09-08T22:57:38.194Z,990.31
2017-09-08T22:58:37.391Z,990.28
2017-09-08T22:59:37.075Z,990.28
2017-09-08T23:00:37.030Z,990.28
2017-09-08T23:04:00.453Z,990.17
2017-09-08T23:05:00.512Z,990.22
2017-09-08T23:06:00.592Z,990.18
2017-09-08T23:07:00.478Z,990.17
2017-09-08T23:08:00.677Z,990.20
2017-09-08T23:09:00.564Z,990.10
2017-09-08T23:10:00.264Z,990.13
2017-09-08T23:11:00.230Z,990.17
2017-09-08T23:12:00.088Z,990.15
2017-09-08T23:13:00.010Z,990.13
2017-09-08T23:14:00.045Z,990.06
2017-09-08T23:14:59.915Z,990.05
2017-09-08T23:16:00.116Z,990.04
2017-09-08T23:17:00.301Z,989.97
2017-09-08T23:18:00.100Z,989.99
2017-09-08T23:19:00.091Z,989.98
2017-09-08T23:19:59.843Z,990.00
2017-09-08T23:20:59.893Z,990.01
2017-09-08T23:21:59.888Z,990.01
2017-09-08T23:22:59.896Z,989.98
2017-09-08T23:25:32.245Z,989.96
2017-09-08T23:26:32.009Z,989.95
2017-09-08T23:27:31.833Z,989.93
2017-09-08T23:28:31.873Z,989.91
2017-09-08T23:29:31.737Z,989.91
2017-09-08T23:30:31.747Z,989.88
2017-09-08T23:31:31.777Z,989.88
2017-09-08T23:32:31.833Z,989.87
2017-09-08T23:33:30.308Z,989.82
2017-09-08T23:34:31.622Z,989.87
2017-09-08T23:35:31.697Z,989.87
2017-09-08T23:36:31.555Z,989.88
2017-09-08T23:37:31.367Z,989.88
2017-09-08T23:38:31.631Z,989.87
2017-09-08T23:39:31.498Z,989.77
2017-09-08T23:40:31.672Z,989.81
2017-09-08T23:41:31.497Z,989.81
2017-09-08T23:42:31.846Z,989.80
2017-09-08T23:43:31.358Z,989.78
2017-09-08T23:44:31.047Z,989.75
2017-09-08T23:47:03.390Z,989.69
2017-09-08T23:48:04.582Z,989.74
2017-09-08T23:49:04.443Z,989.71
2017-09-08T23:50:03.402Z,989.69
2017-09-08T23:51:03.357Z,989.72
2017-09-08T23:52:03.565Z,989.71
2017-09-08T23:53:03.117Z,989.73
2017-09-08T23:54:03.034Z,989.76
2017-09-08T23:55:03.233Z,989.76
2017-09-08T23:56:03.138Z,989.78
2017-09-08T23:57:03.173Z,989.76
2017-09-08T23:58:03.132Z,989.71
2017-09-08T23:59:02.867Z,989.78
